createdAt,value
2018-04-18T00:00:10.488Z,25.80
2018-04-18T00:02:38.620Z,26.90
2018-04-18T00:05:06.771Z,22.95
2018-04-18T00:07:34.909Z,30.27
2018-04-18T00:10:03.073Z,30.48
2018-04-18T00:12:31.204Z,23.87
2018-04-18T00:14:59.363Z,19.55
2018-04-18T00:17:27.500Z,27.45
2018-04-18T00:19:55.658Z,28.90
2018-04-18T00:22:23.799Z,27.10
2018-04-18T00:24:51.964Z,26.60
2018-04-18T00:27:20.096Z,24.75
2018-04-18T00:29:48.256Z,27.83
2018-04-18T00:32:16.392Z,36.22
2018-04-18T00:34:44.556Z,28.85
2018-04-18T00:37:12.700Z,28.95
2018-04-18T00:39:40.867Z,25.90
2018-04-18T00:42:09.005Z,24.40
2018-04-18T00:44:37.165Z,25.48
2018-04-18T00:47:05.301Z,25.58
2018-04-18T00:49:33.468Z,34.40
2018-04-18T00:52:01.600Z,29.45
2018-04-18T00:54:29.757Z,32.55
2018-04-18T00:56:57.882Z,37.22
2018-04-18T00:59:26.040Z,34.63
2018-04-18T01:01:54.172Z,32.90
2018-04-18T01:04:22.338Z,31.95
2018-04-18T01:06:50.472Z,32.60
2018-04-18T01:09:18.646Z,27.98
2018-04-18T01:11:46.780Z,27.87
2018-04-18T01:14:14.941Z,33.60
2018-04-18T01:16:43.072Z,29.77
2018-04-18T01:19:11.232Z,34.65
2018-04-18T01:21:39.371Z,33.85
2018-04-18T01:24:07.541Z,32.38
2018-04-18T01:26:35.676Z,29.52
2018-04-18T01:29:03.835Z,33.10
2018-04-18T01:31:31.969Z,28.75
2018-04-18T01:34:00.128Z,36.85
2018-04-18T01:36:28.263Z,32.60
2018-04-18T01:38:56.428Z,33.60
2018-04-18T01:41:24.560Z,40.75
2018-04-18T01:43:52.725Z,29.80
2018-04-18T01:46:20.856Z,41.15
2018-04-18T01:48:49.017Z,35.10
2018-04-18T01:51:17.151Z,35.03
2018-04-18T01:53:45.308Z,35.28
2018-04-18T01:56:13.440Z,52.97
2018-04-18T01:58:41.612Z,40.30
2018-04-18T02:01:09.749Z,42.72
2018-04-18T02:03:37.932Z,44.25
2018-04-18T02:06:06.060Z,43.03
2018-04-18T02:08:34.977Z,44.78
2018-04-18T02:11:03.135Z,41.53
2018-04-18T02:13:31.268Z,40.50
2018-04-18T02:15:59.436Z,40.75
2018-04-18T02:18:27.568Z,29.75
2018-04-18T02:20:55.732Z,31.02
2018-04-18T02:23:23.865Z,29.42
2018-04-18T02:25:52.029Z,30.05
2018-04-18T02:28:20.164Z,40.90
2018-04-18T02:30:48.330Z,30.70
2018-04-18T02:33:16.468Z,27.25
2018-04-18T02:35:44.629Z,33.75
2018-04-18T02:38:12.761Z,34.13
2018-04-18T02:40:40.928Z,34.05
2018-04-18T02:43:09.066Z,34.38
2018-04-18T02:45:37.220Z,29.55
2018-04-18T02:48:05.355Z,31.33
2018-04-18T02:50:33.526Z,28.70
2018-04-18T02:53:01.660Z,26.58
2018-04-18T02:55:29.816Z,23.77
2018-04-18T02:57:57.952Z,27.25
2018-04-18T03:00:26.113Z,27.75
2018-04-18T03:02:54.239Z,29.92
2018-04-18T03:05:22.407Z,24.87
2018-04-18T03:07:50.538Z,21.70
2018-04-18T03:10:18.692Z,22.00
2018-04-18T03:12:46.828Z,22.85
2018-04-18T03:15:14.980Z,23.12
2018-04-18T03:17:43.116Z,22.42
2018-04-18T03:20:11.280Z,28.90
2018-04-18T03:22:39.421Z,25.05
2018-04-18T03:25:07.561Z,23.35
2018-04-18T03:27:35.720Z,28.83
2018-04-18T03:30:03.861Z,27.48
2018-04-18T03:32:32.017Z,23.23
2018-04-18T03:35:00.148Z,26.25
2018-04-18T03:37:28.314Z,22.27
2018-04-18T03:39:56.443Z,22.20
2018-04-18T03:42:24.601Z,23.23
2018-04-18T03:44:52.736Z,22.65
2018-04-18T03:47:20.897Z,23.17
2018-04-18T03:49:49.044Z,29.12
2018-04-18T03:52:17.204Z,31.62
2018-04-18T03:54:45.342Z,28.65
2018-04-18T03:57:13.513Z,30.10
2018-04-18T03:59:41.640Z,25.30
2018-04-18T04:02:09.797Z,22.13
2018-04-18T04:04:37.932Z,22.52
2018-04-18T04:07:06.096Z,28.30
2018-04-18T04:09:34.234Z,26.10
2018-04-18T04:12:02.392Z,23.23
2018-04-18T04:14:30.523Z,27.08
2018-04-18T04:17:10.561Z,20.98
2018-04-18T04:19:50.457Z,30.33
2018-04-18T04:22:30.284Z,28.87
2018-04-18T04:24:58.449Z,29.25
2018-04-18T04:27:26.594Z,30.23
2018-04-18T04:29:55.592Z,29.15
2018-04-18T04:32:23.752Z,24.08
2018-04-18T04:34:51.892Z,26.27
2018-04-18T04:37:20.060Z,28.62
2018-04-18T04:39:48.192Z,21.17
2018-04-18T04:42:16.353Z,30.25
2018-04-18T04:44:44.488Z,25.05
2018-04-18T04:47:12.651Z,23.17
2018-04-18T04:49:40.790Z,26.73
2018-04-18T04:52:08.955Z,27.73
2018-04-18T04:54:37.086Z,28.75
2018-04-18T04:57:05.251Z,26.52
2018-04-18T04:59:33.380Z,30.83
2018-04-18T05:02:01.541Z,26.83
2018-04-18T05:04:29.671Z,25.73
2018-04-18T05:06:57.857Z,32.60
2018-04-18T05:09:25.988Z,29.87
2018-04-18T05:11:54.148Z,25.73
2018-04-18T05:14:22.279Z,27.98
2018-04-18T05:16:50.443Z,29.55
2018-04-18T05:19:18.596Z,31.83
2018-04-18T05:21:46.771Z,31.95
2018-04-18T05:24:20.612Z,31.17
2018-04-18T05:26:48.772Z,30.33
2018-04-18T05:29:16.903Z,30.95
2018-04-18T05:31:45.069Z,31.25
2018-04-18T05:34:13.206Z,26.23
2018-04-18T05:36:41.364Z,30.00
2018-04-18T05:39:09.502Z,26.80
2018-04-18T05:41:37.665Z,20.92
2018-04-18T05:44:05.834Z,22.67
2018-04-18T05:46:33.970Z,20.23
2018-04-18T05:49:02.132Z,19.37
2018-04-18T05:51:30.264Z,19.33
2018-04-18T05:53:58.432Z,19.98
2018-04-18T05:56:26.564Z,20.20
2018-04-18T05:58:54.729Z,20.85
2018-04-18T06:01:22.869Z,16.30
2018-04-18T06:03:51.039Z,14.70
2018-04-18T06:06:19.230Z,15.88
2018-04-18T06:08:47.360Z,17.90
2018-04-18T06:11:15.598Z,17.45
2018-04-18T06:13:43.728Z,13.85
2018-04-18T06:16:11.881Z,19.05
2018-04-18T06:18:40.050Z,17.62
2018-04-18T06:21:08.205Z,20.25
2018-04-18T06:23:36.376Z,15.75
2018-04-18T06:26:04.527Z,15.65
2018-04-18T06:28:32.700Z,18.00
2018-04-18T06:31:00.851Z,20.42
2018-04-18T06:33:29.017Z,16.95
2018-04-18T06:35:57.158Z,15.77
2018-04-18T06:38:26.091Z,17.85
2018-04-18T06:40:54.228Z,16.50
2018-04-18T06:43:22.825Z,15.63
2018-04-18T06:45:50.995Z,16.92
2018-04-18T06:48:19.257Z,20.30
2018-04-18T06:50:48.392Z,19.30
2018-04-18T06:53:16.587Z,17.35
2018-04-18T06:55:45.182Z,18.80
2018-04-18T06:58:13.684Z,19.08
2018-04-18T07:00:42.756Z,22.37
2018-04-18T07:03:11.005Z,19.83
2018-04-18T07:05:39.180Z,20.88
2018-04-18T07:08:07.353Z,28.23
2018-04-18T07:10:35.694Z,20.37
2018-04-18T07:13:04.094Z,19.77
2018-04-18T07:15:32.667Z,22.00
2018-04-18T07:18:00.863Z,21.58
2018-04-18T07:20:29.192Z,21.30
2018-04-18T07:22:57.409Z,20.23
2018-04-18T07:25:25.807Z,23.20
2018-04-18T07:27:53.988Z,22.83
2018-04-18T07:30:22.156Z,23.63
2018-04-18T07:32:50.318Z,24.93
2018-04-18T07:35:18.497Z,23.63
2018-04-18T07:37:46.666Z,21.60
2018-04-18T07:40:14.832Z,24.70
2018-04-18T07:42:43.078Z,22.33
2018-04-18T07:45:11.303Z,22.60
2018-04-18T07:47:39.462Z,25.90
2018-04-18T07:50:07.635Z,25.63
2018-04-18T07:52:35.952Z,26.57
2018-04-18T07:55:04.321Z,27.40
2018-04-18T07:57:33.308Z,28.03
2018-04-18T08:00:01.721Z,27.63
2018-04-18T08:02:30.381Z,31.27
2018-04-18T08:04:59.471Z,29.97
2018-04-18T08:07:27.828Z,30.43
2018-04-18T08:09:56.387Z,30.80
2018-04-18T08:12:24.950Z,30.83
2018-04-18T08:14:53.112Z,32.13
2018-04-18T08:17:21.251Z,29.33
2018-04-18T08:19:49.796Z,28.40
2018-04-18T08:22:18.149Z,27.77
2018-04-18T08:24:46.313Z,26.90
2018-04-18T08:27:14.508Z,28.83
2018-04-18T08:29:43.450Z,27.83
2018-04-18T08:32:11.620Z,27.30
2018-04-18T08:34:39.782Z,26.73
2018-04-18T08:37:07.925Z,25.77
2018-04-18T08:39:36.852Z,25.37
2018-04-18T08:42:05.000Z,25.43
2018-04-18T08:44:33.167Z,26.33
2018-04-18T08:47:01.308Z,25.40
2018-04-18T08:49:29.521Z,26.27
2018-04-18T08:51:57.655Z,26.43
2018-04-18T08:54:25.820Z,24.67
2018-04-18T08:56:53.957Z,26.87
2018-04-18T08:59:22.120Z,27.43
2018-04-18T09:01:50.278Z,29.67
2018-04-18T09:04:18.488Z,27.10
2018-04-18T09:06:46.673Z,27.60
2018-04-18T09:09:14.844Z,28.90
2018-04-18T09:11:43.034Z,34.00
2018-04-18T09:14:11.221Z,35.47
2018-04-18T09:16:39.363Z,29.50
2018-04-18T09:19:07.528Z,30.17
2018-04-18T09:21:35.668Z,40.90
2018-04-18T09:24:04.005Z,39.50
2018-04-18T09:26:32.148Z,35.43
2018-04-18T09:29:00.331Z,32.33
2018-04-18T09:31:28.560Z,36.50
2018-04-18T09:33:57.495Z,32.67
2018-04-18T09:36:25.636Z,40.80
2018-04-18T09:38:53.809Z,34.90
2018-04-18T09:41:21.955Z,38.83
2018-04-18T09:43:50.125Z,36.00
2018-04-18T09:46:18.309Z,35.60
2018-04-18T09:48:46.461Z,36.97
2018-04-18T09:51:15.373Z,41.50
2018-04-18T09:53:43.564Z,36.60
2018-04-18T09:56:11.708Z,37.50
2018-04-18T09:58:39.858Z,39.87
2018-04-18T10:01:08.033Z,39.30
2018-04-18T10:03:36.177Z,46.43
2018-04-18T10:06:04.342Z,46.20
2018-04-18T10:08:32.488Z,41.37
2018-04-18T10:11:00.656Z,45.70
2018-04-18T10:13:28.800Z,43.60
2018-04-18T10:15:56.964Z,34.33
2018-04-18T10:18:25.580Z,30.70
2018-04-18T10:20:53.751Z,32.60
2018-04-18T10:23:21.891Z,33.03
2018-04-18T10:25:50.054Z,31.40
2018-04-18T10:28:18.202Z,28.90
2018-04-18T10:30:47.138Z,23.30
2018-04-18T10:33:15.290Z,42.83
2018-04-18T10:35:43.478Z,20.70
2018-04-18T10:38:11.680Z,22.03
2018-04-18T10:40:39.827Z,22.43
2018-04-18T10:43:07.970Z,28.40
2018-04-18T10:45:36.144Z,20.87
2018-04-18T10:48:04.286Z,21.63
2018-04-18T10:50:32.451Z,30.20
2018-04-18T10:53:00.594Z,26.90
2018-04-18T10:55:28.756Z,23.20
2018-04-18T10:57:56.897Z,21.73
2018-04-18T11:00:25.834Z,23.33
2018-04-18T11:02:53.979Z,21.40
2018-04-18T11:05:22.151Z,18.30
2018-04-18T11:07:50.299Z,18.23
2018-04-18T11:10:18.470Z,18.03
2018-04-18T11:12:46.614Z,23.43
2018-04-18T11:15:14.785Z,18.13
2018-04-18T11:17:42.933Z,16.53
2018-04-18T11:20:11.096Z,20.70
2018-04-18T11:22:39.241Z,16.10
2018-04-18T11:25:07.408Z,37.63
2018-04-18T11:27:35.543Z,23.33
2018-04-18T11:30:03.714Z,14.20
2018-04-18T11:32:31.861Z,15.13
2018-04-18T11:35:00.037Z,13.87
2018-04-18T11:37:28.191Z,21.03
2018-04-18T11:39:57.122Z,14.53
2018-04-18T11:42:25.262Z,11.80
2018-04-18T11:44:54.197Z,12.20
2018-04-18T11:47:22.368Z,10.93
2018-04-18T11:49:50.536Z,14.20
2018-04-18T11:52:18.673Z,13.10
2018-04-18T11:54:47.576Z,13.17
2018-04-18T11:57:15.737Z,14.53
2018-04-18T11:59:44.641Z,12.20
2018-04-18T12:02:12.824Z,11.60
2018-04-18T12:04:40.965Z,10.63
2018-04-18T12:07:10.134Z,12.93
2018-04-18T12:09:38.273Z,12.53
2018-04-18T12:12:06.436Z,9.23
2018-04-18T12:14:34.641Z,14.17
2018-04-18T12:17:02.806Z,11.43
2018-04-18T12:19:30.946Z,9.10
2018-04-18T12:21:59.892Z,8.80
2018-04-18T12:24:28.056Z,8.00
2018-04-18T12:26:56.234Z,11.10
2018-04-18T12:29:24.380Z,17.80
2018-04-18T12:31:52.547Z,10.57
2018-04-18T12:34:20.696Z,18.07
2018-04-18T12:36:48.857Z,8.77
2018-04-18T12:39:16.997Z,13.10
2018-04-18T12:41:45.168Z,9.63
2018-04-18T12:44:13.306Z,11.40
2018-04-18T12:46:41.469Z,6.80
2018-04-18T12:49:10.387Z,11.43
2018-04-18T12:51:38.604Z,8.67
2018-04-18T12:54:06.737Z,8.73
2018-04-18T12:56:34.897Z,8.53
2018-04-18T12:59:03.033Z,9.17
2018-04-18T13:01:31.188Z,8.30
2018-04-18T13:03:59.325Z,10.47
2018-04-18T13:06:27.529Z,8.70
2018-04-18T13:08:55.650Z,11.10
2018-04-18T13:11:24.580Z,6.00
2018-04-18T13:13:52.721Z,9.80
2018-04-18T13:16:20.936Z,9.83
2018-04-18T13:18:49.078Z,10.07
2018-04-18T13:21:17.257Z,11.30
2018-04-18T13:23:45.393Z,7.60
2018-04-18T13:26:13.557Z,8.07
2018-04-18T13:28:41.728Z,8.97
2018-04-18T13:31:09.864Z,7.10
2018-04-18T13:33:38.030Z,8.47
2018-04-18T13:36:06.165Z,8.87
2018-04-18T13:38:34.323Z,9.00
2018-04-18T13:41:02.461Z,10.17
2018-04-18T13:43:30.622Z,7.60
2018-04-18T13:45:58.769Z,7.10
2018-04-18T13:48:26.937Z,16.40
2018-04-18T13:50:55.869Z,8.37
2018-04-18T13:53:24.020Z,10.63
2018-04-18T13:55:52.201Z,7.37
2018-04-18T13:58:20.349Z,6.93
2018-04-18T14:00:48.498Z,8.93
2018-04-18T14:03:16.661Z,11.13
2018-04-18T14:05:44.805Z,9.50
2018-04-18T14:08:12.970Z,9.83
2018-04-18T14:10:41.113Z,12.77
2018-04-18T14:13:09.272Z,10.30
2018-04-18T14:15:37.409Z,8.93
2018-04-18T14:18:05.568Z,8.60
2018-04-18T14:20:33.700Z,7.97
2018-04-18T14:23:01.862Z,8.57
2018-04-18T14:25:29.996Z,9.00
2018-04-18T14:27:58.180Z,10.93
2018-04-18T14:30:26.320Z,11.30
2018-04-18T14:32:55.253Z,9.43
2018-04-18T14:35:23.386Z,7.33
2018-04-18T14:37:51.546Z,8.40
2018-04-18T14:40:20.453Z,9.83
2018-04-18T14:42:48.617Z,11.90
2018-04-18T14:45:17.524Z,9.93
2018-04-18T14:47:45.681Z,9.97
2018-04-18T14:50:14.578Z,10.00
2018-04-18T14:52:42.741Z,15.83
2018-04-18T14:55:11.662Z,12.90
2018-04-18T14:57:39.822Z,11.20
2018-04-18T15:00:07.961Z,16.27
2018-04-18T15:02:36.131Z,6.90
2018-04-18T15:05:04.273Z,8.17
2018-04-18T15:07:32.444Z,14.13
2018-04-18T15:10:00.581Z,12.43
2018-04-18T15:12:29.505Z,9.03
2018-04-18T15:14:57.649Z,13.33
2018-04-18T15:17:25.823Z,9.30
2018-04-18T15:19:53.960Z,8.40
2018-04-18T15:22:22.119Z,8.63
2018-04-18T15:24:50.266Z,12.30
2018-04-18T15:27:18.438Z,7.83
2018-04-18T15:29:46.573Z,8.80
2018-04-18T15:32:15.501Z,9.37
2018-04-18T15:34:43.640Z,11.40
2018-04-18T15:37:12.567Z,7.87
2018-04-18T15:39:40.701Z,9.57
2018-04-18T15:42:08.857Z,13.33
2018-04-18T15:44:37.000Z,8.37
2018-04-18T15:47:05.176Z,8.73
2018-04-18T15:49:33.314Z,7.80
2018-04-18T15:52:02.238Z,10.10
2018-04-18T15:54:30.374Z,9.63
2018-04-18T15:56:59.304Z,12.60
2018-04-18T15:59:27.442Z,13.20
2018-04-18T16:01:56.402Z,11.10
2018-04-18T16:04:24.560Z,8.23
2018-04-18T16:06:52.708Z,9.47
2018-04-18T16:09:20.872Z,9.70
2018-04-18T16:11:49.207Z,13.07
2018-04-18T16:14:17.396Z,13.47
2018-04-18T16:16:46.345Z,12.70
2018-04-18T16:19:14.508Z,11.10
2018-04-18T16:21:42.660Z,12.43
2018-04-18T16:24:11.066Z,12.43
2018-04-18T16:26:39.251Z,12.17
2018-04-18T16:29:19.116Z,14.37
2018-04-18T16:31:47.258Z,13.07
2018-04-18T16:34:15.419Z,13.60
2018-04-18T16:36:43.581Z,12.40
2018-04-18T16:39:11.745Z,14.57
2018-04-18T16:41:39.888Z,14.67
2018-04-18T16:44:08.060Z,11.03
2018-04-18T16:46:36.232Z,11.67
2018-04-18T16:49:04.393Z,12.40
2018-04-18T16:51:32.538Z,13.07
2018-04-18T16:54:00.705Z,11.77
2018-04-18T16:56:28.856Z,12.97
2018-04-18T16:58:57.019Z,13.00
2018-04-18T17:01:25.941Z,17.97
2018-04-18T17:03:54.100Z,12.23
2018-04-18T17:06:22.261Z,11.60
2018-04-18T17:08:51.275Z,11.93
2018-04-18T17:11:19.436Z,14.40
2018-04-18T17:13:47.620Z,13.50
2018-04-18T17:16:15.769Z,12.67
2018-04-18T17:18:44.700Z,15.03
2018-04-18T17:21:12.845Z,11.70
2018-04-18T17:23:41.785Z,14.53
2018-04-18T17:26:09.961Z,13.20
2018-04-18T17:28:38.189Z,14.20
2018-04-18T17:31:06.364Z,13.23
2018-04-18T17:33:34.555Z,22.40
2018-04-18T17:36:02.736Z,17.20
2018-04-18T17:38:30.897Z,18.67
2018-04-18T17:40:59.099Z,17.70
2018-04-18T17:43:27.256Z,8.63
2018-04-18T17:45:55.428Z,8.27
2018-04-18T17:48:23.578Z,11.03
2018-04-18T17:50:51.750Z,6.53
2018-04-18T17:53:20.865Z,6.93
2018-04-18T17:55:49.151Z,6.30
2018-04-18T17:58:17.320Z,8.05
2018-04-18T18:00:46.492Z,7.30
2018-04-18T18:03:15.435Z,7.37
2018-04-18T18:05:43.617Z,9.57
2018-04-18T18:08:11.787Z,9.73
2018-04-18T18:10:39.966Z,8.57
2018-04-18T18:13:08.145Z,8.07
2018-04-18T18:15:36.329Z,7.90
2018-04-18T18:18:04.488Z,10.75
2018-04-18T18:20:32.663Z,9.82
2018-04-18T18:23:00.828Z,11.48
2018-04-18T18:25:29.003Z,17.98
2018-04-18T18:27:57.159Z,11.85
2018-04-18T18:30:25.323Z,14.60
2018-04-18T18:32:53.477Z,11.25
2018-04-18T18:35:21.668Z,14.30
2018-04-18T18:37:49.821Z,13.43
2018-04-18T18:40:18.755Z,12.98
2018-04-18T18:42:46.899Z,13.38
2018-04-18T18:45:15.115Z,15.65
2018-04-18T18:47:43.285Z,20.92
2018-04-18T18:50:11.466Z,13.88
2018-04-18T18:52:39.621Z,15.07
2018-04-18T18:55:07.894Z,11.93
2018-04-18T18:57:36.036Z,14.77
2018-04-18T19:00:04.269Z,13.85
2018-04-18T19:02:32.484Z,12.13
2018-04-18T19:05:00.664Z,11.90
2018-04-18T19:07:28.827Z,17.08
2018-04-18T19:09:57.066Z,14.82
2018-04-18T19:12:25.273Z,17.20
2018-04-18T19:14:54.273Z,16.27
2018-04-18T19:17:23.199Z,13.15
2018-04-18T19:19:51.450Z,14.43
2018-04-18T19:22:19.704Z,17.65
2018-04-18T19:24:47.896Z,13.55
2018-04-18T19:27:16.048Z,18.17
2018-04-18T19:29:44.247Z,12.60
2018-04-18T19:32:12.424Z,12.30
2018-04-18T19:34:40.634Z,13.05
2018-04-18T19:37:08.807Z,13.80
2018-04-18T19:39:36.990Z,12.30
2018-04-18T19:42:05.225Z,15.05
2018-04-18T19:44:33.544Z,16.10
2018-04-18T19:47:01.731Z,13.02
2018-04-18T19:49:29.880Z,18.95
2018-04-18T19:51:58.050Z,14.18
2018-04-18T19:54:26.221Z,16.60
2018-04-18T19:56:54.400Z,16.42
2018-04-18T19:59:22.545Z,13.20
2018-04-18T20:01:50.722Z,13.30
2018-04-18T20:04:18.878Z,17.67
2018-04-18T20:06:47.048Z,17.00
2018-04-18T20:09:15.215Z,14.90
2018-04-18T20:11:44.149Z,14.50
2018-04-18T20:14:12.324Z,14.55
2018-04-18T20:16:40.498Z,14.07
2018-04-18T20:19:08.642Z,16.87
2018-04-18T20:21:36.819Z,15.88
2018-04-18T20:24:04.957Z,20.00
2018-04-18T20:26:33.156Z,15.40
2018-04-18T20:29:01.318Z,13.93
2018-04-18T20:31:30.260Z,16.27
2018-04-18T20:33:58.398Z,13.02
2018-04-18T20:36:27.334Z,18.90
2018-04-18T20:38:55.527Z,19.92
2018-04-18T20:41:23.718Z,17.95
2018-04-18T20:43:51.871Z,15.30
2018-04-18T20:46:20.044Z,16.90
2018-04-18T20:48:48.180Z,18.90
2018-04-18T20:51:16.355Z,16.58
2018-04-18T20:53:44.500Z,16.80
2018-04-18T20:56:13.446Z,15.48
2018-04-18T20:58:41.596Z,15.43
2018-04-18T21:01:09.740Z,14.45
2018-04-18T21:03:37.904Z,15.77
2018-04-18T21:06:06.044Z,14.43
2018-04-18T21:08:34.215Z,18.17
2018-04-18T21:11:02.360Z,19.20
2018-04-18T21:13:30.528Z,19.83
2018-04-18T21:15:58.669Z,19.73
2018-04-18T21:18:26.866Z,24.73
2018-04-18T21:20:55.008Z,18.48
2018-04-18T21:23:23.184Z,19.95
2018-04-18T21:25:51.318Z,18.52
2018-04-18T21:28:19.487Z,17.25
2018-04-18T21:30:47.631Z,25.37
2018-04-18T21:33:15.801Z,15.07
2018-04-18T21:35:44.704Z,20.90
2018-04-18T21:38:12.870Z,20.83
2018-04-18T21:40:41.767Z,19.80
2018-04-18T21:43:09.934Z,23.20
2018-04-18T21:45:38.842Z,22.17
2018-04-18T21:48:07.007Z,17.85
2018-04-18T21:50:35.173Z,16.80
2018-04-18T21:53:03.336Z,22.00
2018-04-18T21:55:31.490Z,21.98
2018-04-18T21:57:59.660Z,18.92
2018-04-18T22:00:27.800Z,17.35
2018-04-18T22:02:55.968Z,18.67
2018-04-18T22:05:24.111Z,18.67
2018-04-18T22:07:53.056Z,20.27
2018-04-18T22:10:21.209Z,20.98
2018-04-18T22:12:49.372Z,22.70
2018-04-18T22:15:17.509Z,21.25
2018-04-18T22:17:45.700Z,24.08
2018-04-18T22:20:14.617Z,23.17
2018-04-18T22:22:42.783Z,25.65
2018-04-18T22:25:10.920Z,30.00
2018-04-18T22:27:39.108Z,25.40
2018-04-18T22:30:07.252Z,24.25
2018-04-18T22:32:35.393Z,24.77
2018-04-18T22:35:03.569Z,24.20
2018-04-18T22:37:31.715Z,31.33
2018-04-18T22:39:59.881Z,20.90
2018-04-18T22:42:28.781Z,20.55
2018-04-18T22:44:56.948Z,21.60
2018-04-18T22:47:25.092Z,23.45
2018-04-18T22:49:53.290Z,22.73
2018-04-18T22:52:21.433Z,20.15
2018-04-18T22:54:49.609Z,20.33
2018-04-18T22:57:17.756Z,28.23
2018-04-18T22:59:45.938Z,19.62
2018-04-18T23:02:14.084Z,25.42
2018-04-18T23:04:42.252Z,23.80
2018-04-18T23:07:10.389Z,32.78
2018-04-18T23:09:38.559Z,20.75
2018-04-18T23:12:06.697Z,26.90
2018-04-18T23:14:34.864Z,30.90
2018-04-18T23:17:03.003Z,20.67
2018-04-18T23:19:31.164Z,24.00
2018-04-18T23:22:00.111Z,18.87
2018-04-18T23:24:28.266Z,16.85
2018-04-18T23:26:56.429Z,22.90
2018-04-18T23:29:24.585Z,27.20
2018-04-18T23:31:52.780Z,21.48
2018-04-18T23:34:20.956Z,27.73
2018-04-18T23:36:49.140Z,27.77
2018-04-18T23:39:17.277Z,28.25
2018-04-18T23:41:46.212Z,25.58
2018-04-18T23:44:14.348Z,26.08
2018-04-18T23:46:43.273Z,26.50
2018-04-18T23:49:11.411Z,22.60
2018-04-18T23:51:40.346Z,24.83
2018-04-18T23:54:08.488Z,23.73
2018-04-18T23:56:36.661Z,29.20
2018-04-18T23:59:04.795Z,23.02
